sensor_id;sensor_type;location;lat;lon;timestamp;P1;durP1;ratioP1;P2;durP2;ratioP2
6135;SDS011;24008;42.664;23.372;2024-02-15T00:02:13;15.80;;;11.00;;
6135;SDS011;24008;42.664;23.372;2024-02-15T00:04:40;17.23;;;11.07;;
6135;SDS011;24008;42.664;23.372;2024-02-15T00:07:07;16.43;;;11.60;;
6135;SDS011;24008;42.664;23.372;2024-02-15T00:09:36;16.73;;;10.83;;
6135;SDS011;24008;42.664;23.372;2024-02-15T00:12:05;16.07;;;10.63;;
6135;SDS011;24008;42.664;23.372;2024-02-15T00:14:33;16.90;;;10.80;;
6135;SDS011;24008;42.664;23.372;2024-02-15T00:17:04;17.30;;;11.27;;
6135;SDS011;24008;42.664;23.372;2024-02-15T00:19:34;17.30;;;10.87;;
6135;SDS011;24008;42.664;23.372;2024-02-15T00:22:03;14.03;;;10.37;;
6135;SDS011;24008;42.664;23.372;2024-02-15T00:24:30;18.03;;;11.73;;
6135;SDS011;24008;42.664;23.372;2024-02-15T00:26:57;16.57;;;11.33;;
6135;SDS011;24008;42.664;23.372;2024-02-15T00:29:25;16.83;;;10.90;;
6135;SDS011;24008;42.664;23.372;2024-02-15T00:31:53;16.27;;;10.67;;
6135;SDS011;24008;42.664;23.372;2024-02-15T00:34:20;17.90;;;10.90;;
6135;SDS011;24008;42.664;23.372;2024-02-15T00:36:47;14.40;;;10.13;;
6135;SDS011;24008;42.664;23.372;2024-02-15T00:39:13;17.20;;;10.60;;
6135;SDS011;24008;42.664;23.372;2024-02-15T00:41:43;15.50;;;11.00;;
6135;SDS011;24008;42.664;23.372;2024-02-15T00:44:10;14.23;;;9.97;;
6135;SDS011;24008;42.664;23.372;2024-02-15T00:46:38;15.63;;;10.50;;
6135;SDS011;24008;42.664;23.372;2024-02-15T00:49:06;16.20;;;9.87;;
6135;SDS011;24008;42.664;23.372;2024-02-15T00:51:34;17.90;;;10.07;;
6135;SDS011;24008;42.664;23.372;2024-02-15T00:54:02;16.53;;;11.13;;
6135;SDS011;24008;42.664;23.372;2024-02-15T00:56:29;16.63;;;10.27;;
6135;SDS011;24008;42.664;23.372;2024-02-15T00:58:57;16.50;;;10.63;;
6135;SDS011;24008;42.664;23.372;2024-02-15T01:01:26;14.83;;;10.10;;
6135;SDS011;24008;42.664;23.372;2024-02-15T01:03:54;15.70;;;10.57;;
6135;SDS011;24008;42.664;23.372;2024-02-15T01:06:21;15.27;;;9.83;;
6135;SDS011;24008;42.664;23.372;2024-02-15T01:08:48;17.73;;;10.80;;
6135;SDS011;24008;42.664;23.372;2024-02-15T01:11:15;14.97;;;9.67;;
6135;SDS011;24008;42.664;23.372;2024-02-15T01:13:42;14.60;;;10.10;;
6135;SDS011;24008;42.664;23.372;2024-02-15T01:16:09;16.07;;;11.30;;
6135;SDS011;24008;42.664;23.372;2024-02-15T01:18:36;15.87;;;9.57;;
6135;SDS011;24008;42.664;23.372;2024-02-15T01:21:04;14.47;;;10.23;;
6135;SDS011;24008;42.664;23.372;2024-02-15T01:23:31;14.80;;;9.73;;
6135;SDS011;24008;42.664;23.372;2024-02-15T01:25:57;14.67;;;9.77;;
6135;SDS011;24008;42.664;23.372;2024-02-15T01:28:26;17.30;;;10.17;;
6135;SDS011;24008;42.664;23.372;2024-02-15T01:30:52;16.07;;;9.87;;
6135;SDS011;24008;42.664;23.372;2024-02-15T01:33:20;15.10;;;9.83;;
6135;SDS011;24008;42.664;23.372;2024-02-15T01:35:47;14.53;;;10.37;;
6135;SDS011;24008;42.664;23.372;2024-02-15T01:38:16;15.17;;;9.83;;
6135;SDS011;24008;42.664;23.372;2024-02-15T01:40:41;15.13;;;9.67;;
6135;SDS011;24008;42.664;23.372;2024-02-15T01:43:08;17.63;;;10.27;;
6135;SDS011;24008;42.664;23.372;2024-02-15T01:45:35;16.03;;;9.87;;
6135;SDS011;24008;42.664;23.372;2024-02-15T01:48:01;16.93;;;10.20;;
6135;SDS011;24008;42.664;23.372;2024-02-15T01:50:29;15.00;;;9.80;;
6135;SDS011;24008;42.664;23.372;2024-02-15T01:52:57;13.73;;;9.37;;
6135;SDS011;24008;42.664;23.372;2024-02-15T01:55:26;18.00;;;10.40;;
6135;SDS011;24008;42.664;23.372;2024-02-15T01:57:53;15.97;;;10.47;;
6135;SDS011;24008;42.664;23.372;2024-02-15T02:00:20;16.73;;;10.07;;
6135;SDS011;24008;42.664;23.372;2024-02-15T02:02:49;15.30;;;10.00;;
6135;SDS011;24008;42.664;23.372;2024-02-15T02:05:17;14.63;;;9.53;;
6135;SDS011;24008;42.664;23.372;2024-02-15T02:07:43;19.30;;;10.47;;
6135;SDS011;24008;42.664;23.372;2024-02-15T02:10:11;17.43;;;11.03;;
6135;SDS011;24008;42.664;23.372;2024-02-15T02:12:40;16.43;;;9.90;;
6135;SDS011;24008;42.664;23.372;2024-02-15T02:15:08;17.30;;;10.60;;
6135;SDS011;24008;42.664;23.372;2024-02-15T02:17:36;17.00;;;10.53;;
6135;SDS011;24008;42.664;23.372;2024-02-15T02:20:03;16.50;;;10.53;;
6135;SDS011;24008;42.664;23.372;2024-02-15T02:22:33;17.30;;;11.17;;
6135;SDS011;24008;42.664;23.372;2024-02-15T02:25:03;18.50;;;11.00;;
6135;SDS011;24008;42.664;23.372;2024-02-15T02:27:33;17.73;;;10.73;;
6135;SDS011;24008;42.664;23.372;2024-02-15T02:30:02;13.67;;;8.87;;
6135;SDS011;24008;42.664;23.372;2024-02-15T02:32:32;18.43;;;11.23;;
6135;SDS011;24008;42.664;23.372;2024-02-15T02:34:59;17.60;;;10.80;;
6135;SDS011;24008;42.664;23.372;2024-02-15T02:37:26;17.37;;;11.30;;
6135;SDS011;24008;42.664;23.372;2024-02-15T02:39:53;17.07;;;11.10;;
6135;SDS011;24008;42.664;23.372;2024-02-15T02:42:21;17.13;;;10.90;;
6135;SDS011;24008;42.664;23.372;2024-02-15T02:44:49;16.07;;;10.33;;
6135;SDS011;24008;42.664;23.372;2024-02-15T02:47:15;16.53;;;10.13;;
6135;SDS011;24008;42.664;23.372;2024-02-15T02:49:42;17.87;;;10.93;;
6135;SDS011;24008;42.664;23.372;2024-02-15T02:52:09;17.63;;;10.90;;
6135;SDS011;24008;42.664;23.372;2024-02-15T02:54:36;17.00;;;10.57;;
6135;SDS011;24008;42.664;23.372;2024-02-15T02:57:02;17.47;;;10.87;;
6135;SDS011;24008;42.664;23.372;2024-02-15T02:59:33;16.13;;;11.33;;
6135;SDS011;24008;42.664;23.372;2024-02-15T03:02:00;17.07;;;10.60;;
6135;SDS011;24008;42.664;23.372;2024-02-15T03:04:28;16.87;;;10.90;;
6135;SDS011;24008;42.664;23.372;2024-02-15T03:06:55;17.37;;;11.00;;
6135;SDS011;24008;42.664;23.372;2024-02-15T03:09:22;16.67;;;11.23;;
6135;SDS011;24008;42.664;23.372;2024-02-15T03:11:52;16.17;;;10.90;;
6135;SDS011;24008;42.664;23.372;2024-02-15T03:14:18;16.50;;;11.10;;
6135;SDS011;24008;42.664;23.372;2024-02-15T03:16:47;18.00;;;11.10;;
6135;SDS011;24008;42.664;23.372;2024-02-15T03:19:13;16.63;;;11.67;;
6135;SDS011;24008;42.664;23.372;2024-02-15T03:21:40;18.90;;;12.03;;
6135;SDS011;24008;42.664;23.372;2024-02-15T03:24:11;20.27;;;12.17;;
6135;SDS011;24008;42.664;23.372;2024-02-15T03:26:38;19.97;;;12.37;;
6135;SDS011;24008;42.664;23.372;2024-02-15T03:29:05;19.73;;;11.97;;
6135;SDS011;24008;42.664;23.372;2024-02-15T03:31:32;19.00;;;12.17;;
6135;SDS011;24008;42.664;23.372;2024-02-15T03:34:03;21.00;;;12.17;;
6135;SDS011;24008;42.664;23.372;2024-02-15T03:36:30;20.90;;;12.77;;
6135;SDS011;24008;42.664;23.372;2024-02-15T03:38:56;20.13;;;12.93;;
6135;SDS011;24008;42.664;23.372;2024-02-15T03:41:23;18.30;;;12.13;;
6135;SDS011;24008;42.664;23.372;2024-02-15T03:43:53;18.00;;;12.43;;
6135;SDS011;24008;42.664;23.372;2024-02-15T03:46:19;18.93;;;12.20;;
6135;SDS011;24008;42.664;23.372;2024-02-15T03:48:47;21.53;;;12.43;;
6135;SDS011;24008;42.664;23.372;2024-02-15T03:51:17;23.27;;;13.07;;
6135;SDS011;24008;42.664;23.372;2024-02-15T03:53:45;19.93;;;12.37;;
6135;SDS011;24008;42.664;23.372;2024-02-15T03:56:12;20.13;;;12.40;;
6135;SDS011;24008;42.664;23.372;2024-02-15T03:58:39;22.07;;;12.60;;
6135;SDS011;24008;42.664;23.372;2024-02-15T04:01:06;19.43;;;11.63;;
6135;SDS011;24008;42.664;23.372;2024-02-15T04:03:34;19.90;;;12.37;;
6135;SDS011;24008;42.664;23.372;2024-02-15T04:06:01;20.17;;;11.77;;
6135;SDS011;24008;42.664;23.372;2024-02-15T04:08:31;19.27;;;11.47;;
6135;SDS011;24008;42.664;23.372;2024-02-15T04:10:57;22.67;;;12.90;;
6135;SDS011;24008;42.664;23.372;2024-02-15T04:13:24;19.27;;;12.03;;
6135;SDS011;24008;42.664;23.372;2024-02-15T04:15:51;19.60;;;11.90;;
6135;SDS011;24008;42.664;23.372;2024-02-15T04:18:18;19.20;;;11.50;;
6135;SDS011;24008;42.664;23.372;2024-02-15T04:20:45;22.60;;;12.73;;
6135;SDS011;24008;42.664;23.372;2024-02-15T04:23:11;20.47;;;12.17;;
6135;SDS011;24008;42.664;23.372;2024-02-15T04:25:39;19.00;;;11.97;;
6135;SDS011;24008;42.664;23.372;2024-02-15T04:28:09;19.97;;;12.00;;
6135;SDS011;24008;42.664;23.372;2024-02-15T04:30:35;20.93;;;11.87;;
6135;SDS011;24008;42.664;23.372;2024-02-15T04:33:03;18.17;;;10.93;;
6135;SDS011;24008;42.664;23.372;2024-02-15T04:35:30;21.13;;;12.30;;
6135;SDS011;24008;42.664;23.372;2024-02-15T04:37:57;18.33;;;10.93;;
6135;SDS011;24008;42.664;23.372;2024-02-15T04:40:24;19.50;;;12.37;;
6135;SDS011;24008;42.664;23.372;2024-02-15T04:42:52;19.07;;;10.57;;
6135;SDS011;24008;42.664;23.372;2024-02-15T04:45:19;17.53;;;11.50;;
6135;SDS011;24008;42.664;23.372;2024-02-15T04:47:47;18.60;;;11.13;;
6135;SDS011;24008;42.664;23.372;2024-02-15T04:50:17;21.57;;;11.90;;
6135;SDS011;24008;42.664;23.372;2024-02-15T04:52:54;19.10;;;11.47;;
6135;SDS011;24008;42.664;23.372;2024-02-15T04:55:21;20.67;;;11.83;;
6135;SDS011;24008;42.664;23.372;2024-02-15T04:57:52;20.47;;;11.33;;
6135;SDS011;24008;42.664;23.372;2024-02-15T05:00:21;19.07;;;11.80;;
6135;SDS011;24008;42.664;23.372;2024-02-15T05:02:51;21.80;;;12.03;;
6135;SDS011;24008;42.664;23.372;2024-02-15T05:05:19;21.80;;;12.03;;
6135;SDS011;24008;42.664;23.372;2024-02-15T05:07:47;21.97;;;12.30;;
6135;SDS011;24008;42.664;23.372;2024-02-15T05:10:15;21.73;;;12.13;;
6135;SDS011;24008;42.664;23.372;2024-02-15T05:12:44;21.43;;;12.00;;
6135;SDS011;24008;42.664;23.372;2024-02-15T05:15:16;22.23;;;12.43;;
6135;SDS011;24008;42.664;23.372;2024-02-15T05:17:43;18.80;;;11.63;;
6135;SDS011;24008;42.664;23.372;2024-02-15T05:20:11;18.80;;;11.13;;
6135;SDS011;24008;42.664;23.372;2024-02-15T05:22:38;17.43;;;11.30;;
6135;SDS011;24008;42.664;23.372;2024-02-15T05:25:09;22.07;;;11.67;;
6135;SDS011;24008;42.664;23.372;2024-02-15T05:27:37;20.27;;;11.67;;
6135;SDS011;24008;42.664;23.372;2024-02-15T05:30:05;20.67;;;11.73;;
6135;SDS011;24008;42.664;23.372;2024-02-15T05:32:34;20.17;;;11.60;;
6135;SDS011;24008;42.664;23.372;2024-02-15T05:35:06;19.53;;;12.10;;
6135;SDS011;24008;42.664;23.372;2024-02-15T05:37:34;21.93;;;11.90;;
6135;SDS011;24008;42.664;23.372;2024-02-15T05:40:01;20.70;;;12.03;;
6135;SDS011;24008;42.664;23.372;2024-02-15T05:42:28;19.63;;;11.97;;
6135;SDS011;24008;42.664;23.372;2024-02-15T05:44:54;20.23;;;11.87;;
6135;SDS011;24008;42.664;23.372;2024-02-15T05:47:21;18.80;;;10.90;;
6135;SDS011;24008;42.664;23.372;2024-02-15T05:49:50;17.63;;;10.83;;
6135;SDS011;24008;42.664;23.372;2024-02-15T05:52:20;19.53;;;11.67;;
6135;SDS011;24008;42.664;23.372;2024-02-15T05:54:46;22.10;;;11.90;;
6135;SDS011;24008;42.664;23.372;2024-02-15T05:57:13;19.83;;;11.10;;
6135;SDS011;24008;42.664;23.372;2024-02-15T05:59:42;19.67;;;11.47;;
6135;SDS011;24008;42.664;23.372;2024-02-15T06:02:08;21.77;;;12.17;;
6135;SDS011;24008;42.664;23.372;2024-02-15T06:04:34;18.83;;;11.73;;
6135;SDS011;24008;42.664;23.372;2024-02-15T06:07:02;20.73;;;11.23;;
6135;SDS011;24008;42.664;23.372;2024-02-15T06:09:29;22.73;;;11.33;;
6135;SDS011;24008;42.664;23.372;2024-02-15T06:11:58;20.70;;;11.33;;
6135;SDS011;24008;42.664;23.372;2024-02-15T06:14:25;16.97;;;10.70;;
6135;SDS011;24008;42.664;23.372;2024-02-15T06:16:52;21.57;;;11.63;;
6135;SDS011;24008;42.664;23.372;2024-02-15T06:19:20;18.97;;;11.37;;
6135;SDS011;24008;42.664;23.372;2024-02-15T06:21:47;19.80;;;11.67;;
6135;SDS011;24008;42.664;23.372;2024-02-15T06:24:15;21.27;;;11.97;;
6135;SDS011;24008;42.664;23.372;2024-02-15T06:26:42;21.92;;;11.65;;
6135;SDS011;24008;42.664;23.372;2024-02-15T06:29:09;20.10;;;11.77;;
6135;SDS011;24008;42.664;23.372;2024-02-15T06:31:54;23.53;;;12.40;;
6135;SDS011;24008;42.664;23.372;2024-02-15T06:34:44;20.10;;;11.07;;
6135;SDS011;24008;42.664;23.372;2024-02-15T06:37:37;20.60;;;11.10;;
6135;SDS011;24008;42.664;23.372;2024-02-15T06:40:24;19.87;;;11.80;;
6135;SDS011;24008;42.664;23.372;2024-02-15T06:42:51;18.13;;;11.23;;
6135;SDS011;24008;42.664;23.372;2024-02-15T06:45:17;17.87;;;11.07;;
6135;SDS011;24008;42.664;23.372;2024-02-15T06:47:44;18.47;;;11.23;;
6135;SDS011;24008;42.664;23.372;2024-02-15T06:50:11;17.90;;;10.80;;
6135;SDS011;24008;42.664;23.372;2024-02-15T06:52:38;21.70;;;12.03;;
6135;SDS011;24008;42.664;23.372;2024-02-15T06:55:06;22.70;;;11.73;;
6135;SDS011;24008;42.664;23.372;2024-02-15T06:57:35;21.53;;;11.60;;
6135;SDS011;24008;42.664;23.372;2024-02-15T07:00:02;21.70;;;12.37;;
6135;SDS011;24008;42.664;23.372;2024-02-15T07:02:29;21.60;;;11.73;;
6135;SDS011;24008;42.664;23.372;2024-02-15T07:04:57;20.67;;;11.30;;
6135;SDS011;24008;42.664;23.372;2024-02-15T07:07:24;21.03;;;11.47;;
6135;SDS011;24008;42.664;23.372;2024-02-15T07:09:51;23.73;;;12.10;;
6135;SDS011;24008;42.664;23.372;2024-02-15T07:12:18;18.87;;;11.50;;
6135;SDS011;24008;42.664;23.372;2024-02-15T07:14:47;22.70;;;11.97;;
6135;SDS011;24008;42.664;23.372;2024-02-15T07:17:14;22.13;;;12.33;;
6135;SDS011;24008;42.664;23.372;2024-02-15T07:19:42;20.57;;;11.53;;
6135;SDS011;24008;42.664;23.372;2024-02-15T07:22:09;16.23;;;10.67;;
6135;SDS011;24008;42.664;23.372;2024-02-15T07:24:36;16.60;;;11.00;;
6135;SDS011;24008;42.664;23.372;2024-02-15T07:27:03;21.03;;;11.40;;
6135;SDS011;24008;42.664;23.372;2024-02-15T07:29:30;20.33;;;12.07;;
6135;SDS011;24008;42.664;23.372;2024-02-15T07:31:59;17.50;;;10.97;;
6135;SDS011;24008;42.664;23.372;2024-02-15T07:34:27;18.60;;;11.20;;
6135;SDS011;24008;42.664;23.372;2024-02-15T07:36:54;19.80;;;11.80;;
6135;SDS011;24008;42.664;23.372;2024-02-15T07:39:20;19.87;;;12.03;;
6135;SDS011;24008;42.664;23.372;2024-02-15T07:41:49;20.27;;;10.70;;
6135;SDS011;24008;42.664;23.372;2024-02-15T07:44:16;19.77;;;11.53;;
6135;SDS011;24008;42.664;23.372;2024-02-15T07:46:43;18.43;;;10.93;;
6135;SDS011;24008;42.664;23.372;2024-02-15T07:49:13;17.33;;;11.27;;
6135;SDS011;24008;42.664;23.372;2024-02-15T07:51:41;16.83;;;11.03;;
6135;SDS011;24008;42.664;23.372;2024-02-15T07:54:08;16.87;;;10.30;;
6135;SDS011;24008;42.664;23.372;2024-02-15T07:56:35;18.43;;;11.33;;
6135;SDS011;24008;42.664;23.372;2024-02-15T07:59:03;18.07;;;10.70;;
6135;SDS011;24008;42.664;23.372;2024-02-15T08:01:30;19.80;;;11.30;;
6135;SDS011;24008;42.664;23.372;2024-02-15T08:03:57;18.27;;;10.90;;
6135;SDS011;24008;42.664;23.372;2024-02-15T08:06:25;17.43;;;10.90;;
6135;SDS011;24008;42.664;23.372;2024-02-15T08:08:53;19.03;;;10.60;;
6135;SDS011;24008;42.664;23.372;2024-02-15T08:11:20;16.57;;;10.33;;
6135;SDS011;24008;42.664;23.372;2024-02-15T08:13:46;14.83;;;11.03;;
6135;SDS011;24008;42.664;23.372;2024-02-15T08:16:14;14.90;;;10.67;;
6135;SDS011;24008;42.664;23.372;2024-02-15T08:18:42;14.70;;;10.37;;
6135;SDS011;24008;42.664;23.372;2024-02-15T08:21:11;17.23;;;10.47;;
6135;SDS011;24008;42.664;23.372;2024-02-15T08:23:40;16.43;;;9.47;;
6135;SDS011;24008;42.664;23.372;2024-02-15T08:26:07;13.77;;;9.43;;
6135;SDS011;24008;42.664;23.372;2024-02-15T08:28:36;15.60;;;10.50;;
6135;SDS011;24008;42.664;23.372;2024-02-15T08:31:03;15.13;;;10.63;;
6135;SDS011;24008;42.664;23.372;2024-02-15T08:33:30;13.77;;;9.67;;
6135;SDS011;24008;42.664;23.372;2024-02-15T08:35:56;17.40;;;10.33;;
6135;SDS011;24008;42.664;23.372;2024-02-15T08:38:23;14.27;;;10.77;;
6135;SDS011;24008;42.664;23.372;2024-02-15T08:40:51;15.20;;;10.53;;
6135;SDS011;24008;42.664;23.372;2024-02-15T08:43:18;16.10;;;10.17;;
6135;SDS011;24008;42.664;23.372;2024-02-15T08:45:44;16.87;;;10.17;;
6135;SDS011;24008;42.664;23.372;2024-02-15T08:48:11;13.83;;;9.17;;
6135;SDS011;24008;42.664;23.372;2024-02-15T08:50:38;15.77;;;9.33;;
6135;SDS011;24008;42.664;23.372;2024-02-15T08:53:06;15.60;;;9.37;;
6135;SDS011;24008;42.664;23.372;2024-02-15T08:55:33;15.60;;;9.67;;
6135;SDS011;24008;42.664;23.372;2024-02-15T08:58:02;13.83;;;9.97;;
6135;SDS011;24008;42.664;23.372;2024-02-15T09:00:29;14.70;;;9.70;;
6135;SDS011;24008;42.664;23.372;2024-02-15T09:02:56;14.20;;;9.67;;
6135;SDS011;24008;42.664;23.372;2024-02-15T09:05:23;14.90;;;9.87;;
6135;SDS011;24008;42.664;23.372;2024-02-15T09:07:50;15.60;;;9.90;;
6135;SDS011;24008;42.664;23.372;2024-02-15T09:10:17;13.17;;;10.03;;
6135;SDS011;24008;42.664;23.372;2024-02-15T09:12:47;12.67;;;9.80;;
6135;SDS011;24008;42.664;23.372;2024-02-15T09:15:16;15.53;;;9.40;;
6135;SDS011;24008;42.664;23.372;2024-02-15T09:17:43;13.33;;;9.30;;
6135;SDS011;24008;42.664;23.372;2024-02-15T09:20:11;16.03;;;9.83;;
6135;SDS011;24008;42.664;23.372;2024-02-15T09:22:40;13.17;;;9.00;;
6135;SDS011;24008;42.664;23.372;2024-02-15T09:25:08;12.60;;;9.43;;
6135;SDS011;24008;42.664;23.372;2024-02-15T09:27:35;15.33;;;9.57;;
6135;SDS011;24008;42.664;23.372;2024-02-15T09:30:12;12.60;;;9.47;;
6135;SDS011;24008;42.664;23.372;2024-02-15T09:32:41;11.63;;;8.77;;
6135;SDS011;24008;42.664;23.372;2024-02-15T09:35:09;14.00;;;9.80;;
6135;SDS011;24008;42.664;23.372;2024-02-15T09:37:37;16.50;;;9.80;;
6135;SDS011;24008;42.664;23.372;2024-02-15T09:40:07;12.40;;;8.93;;
6135;SDS011;24008;42.664;23.372;2024-02-15T09:42:35;15.43;;;9.80;;
6135;SDS011;24008;42.664;23.372;2024-02-15T09:45:04;15.87;;;8.97;;
6135;SDS011;24008;42.664;23.372;2024-02-15T09:47:33;13.50;;;8.90;;
6135;SDS011;24008;42.664;23.372;2024-02-15T09:50:04;12.30;;;8.60;;
6135;SDS011;24008;42.664;23.372;2024-02-15T09:52:32;11.83;;;8.93;;
6135;SDS011;24008;42.664;23.372;2024-02-15T09:55:02;11.37;;;8.40;;
6135;SDS011;24008;42.664;23.372;2024-02-15T09:57:29;13.67;;;8.67;;
6135;SDS011;24008;42.664;23.372;2024-02-15T09:59:58;15.67;;;8.77;;
6135;SDS011;24008;42.664;23.372;2024-02-15T10:02:25;12.37;;;8.13;;
6135;SDS011;24008;42.664;23.372;2024-02-15T10:04:53;11.43;;;8.03;;
6135;SDS011;24008;42.664;23.372;2024-02-15T10:07:24;13.07;;;8.93;;
6135;SDS011;24008;42.664;23.372;2024-02-15T10:09:52;13.40;;;8.20;;
6135;SDS011;24008;42.664;23.372;2024-02-15T10:12:19;11.23;;;8.40;;
6135;SDS011;24008;42.664;23.372;2024-02-15T10:14:50;10.53;;;8.10;;
6135;SDS011;24008;42.664;23.372;2024-02-15T10:17:18;11.97;;;7.80;;
6135;SDS011;24008;42.664;23.372;2024-02-15T10:19:48;13.63;;;8.50;;
6135;SDS011;24008;42.664;23.372;2024-02-15T10:22:30;13.37;;;8.53;;
6135;SDS011;24008;42.664;23.372;2024-02-15T10:25:10;14.50;;;8.77;;
6135;SDS011;24008;42.664;23.372;2024-02-15T10:27:37;12.73;;;8.70;;
6135;SDS011;24008;42.664;23.372;2024-02-15T10:30:13;12.33;;;8.80;;
6135;SDS011;24008;42.664;23.372;2024-02-15T10:32:41;13.47;;;8.43;;
6135;SDS011;24008;42.664;23.372;2024-02-15T10:35:09;15.23;;;9.23;;
6135;SDS011;24008;42.664;23.372;2024-02-15T10:37:41;12.20;;;8.43;;
6135;SDS011;24008;42.664;23.372;2024-02-15T10:40:08;12.33;;;8.60;;
6135;SDS011;24008;42.664;23.372;2024-02-15T10:42:38;12.37;;;8.07;;
6135;SDS011;24008;42.664;23.372;2024-02-15T10:45:07;11.40;;;7.70;;
6135;SDS011;24008;42.664;23.372;2024-02-15T10:47:36;12.40;;;8.13;;
6135;SDS011;24008;42.664;23.372;2024-02-15T10:50:05;11.80;;;8.17;;
6135;SDS011;24008;42.664;23.372;2024-02-15T10:52:33;13.73;;;8.17;;
6135;SDS011;24008;42.664;23.372;2024-02-15T10:55:09;11.77;;;8.43;;
6135;SDS011;24008;42.664;23.372;2024-02-15T10:57:39;14.47;;;8.10;;
6135;SDS011;24008;42.664;23.372;2024-02-15T11:00:13;13.90;;;8.30;;
6135;SDS011;24008;42.664;23.372;2024-02-15T11:02:49;13.43;;;7.93;;
6135;SDS011;24008;42.664;23.372;2024-02-15T11:05:27;10.90;;;7.77;;
6135;SDS011;24008;42.664;23.372;2024-02-15T11:08:01;16.27;;;8.47;;
6135;SDS011;24008;42.664;23.372;2024-02-15T11:10:31;11.07;;;8.07;;
6135;SDS011;24008;42.664;23.372;2024-02-15T11:12:58;12.60;;;8.10;;
6135;SDS011;24008;42.664;23.372;2024-02-15T11:18:10;13.13;;;8.10;;
6135;SDS011;24008;42.664;23.372;2024-02-15T11:20:47;10.77;;;7.73;;
6135;SDS011;24008;42.664;23.372;2024-02-15T11:23:24;15.73;;;8.33;;
6135;SDS011;24008;42.664;23.372;2024-02-15T11:25:57;12.23;;;8.43;;
6135;SDS011;24008;42.664;23.372;2024-02-15T11:40:16;15.53;;;7.50;;
6135;SDS011;24008;42.664;23.372;2024-02-15T11:42:45;14.17;;;7.90;;
6135;SDS011;24008;42.664;23.372;2024-02-15T11:45:12;11.83;;;7.23;;
6135;SDS011;24008;42.664;23.372;2024-02-15T11:47:43;10.87;;;6.97;;
6135;SDS011;24008;42.664;23.372;2024-02-15T11:50:15;14.80;;;7.83;;
6135;SDS011;24008;42.664;23.372;2024-02-15T11:52:43;11.43;;;7.60;;
6135;SDS011;24008;42.664;23.372;2024-02-15T11:55:11;10.03;;;7.53;;
6135;SDS011;24008;42.664;23.372;2024-02-15T11:57:39;10.47;;;6.97;;
6135;SDS011;24008;42.664;23.372;2024-02-15T12:00:20;9.80;;;7.20;;
6135;SDS011;24008;42.664;23.372;2024-02-15T12:03:05;17.20;;;7.60;;
6135;SDS011;24008;42.664;23.372;2024-02-15T12:05:50;11.87;;;6.97;;
6135;SDS011;24008;42.664;23.372;2024-02-15T12:08:43;13.03;;;7.40;;
6135;SDS011;24008;42.664;23.372;2024-02-15T12:11:28;12.90;;;7.80;;
6135;SDS011;24008;42.664;23.372;2024-02-15T12:14:12;10.30;;;7.33;;
6135;SDS011;24008;42.664;23.372;2024-02-15T12:17:01;12.20;;;7.90;;
6135;SDS011;24008;42.664;23.372;2024-02-15T12:19:47;10.70;;;7.20;;
6135;SDS011;24008;42.664;23.372;2024-02-15T12:22:15;13.60;;;7.90;;
6135;SDS011;24008;42.664;23.372;2024-02-15T12:24:56;10.97;;;7.30;;
6135;SDS011;24008;42.664;23.372;2024-02-15T12:27:23;14.20;;;8.20;;
6135;SDS011;24008;42.664;23.372;2024-02-15T12:29:53;15.30;;;8.30;;
6135;SDS011;24008;42.664;23.372;2024-02-15T12:32:25;11.73;;;7.67;;
6135;SDS011;24008;42.664;23.372;2024-02-15T12:34:53;12.93;;;8.03;;
6135;SDS011;24008;42.664;23.372;2024-02-15T12:37:35;10.87;;;7.53;;
6135;SDS011;24008;42.664;23.372;2024-02-15T12:40:10;13.87;;;7.67;;
6135;SDS011;24008;42.664;23.372;2024-02-15T12:42:40;11.13;;;7.90;;
6135;SDS011;24008;42.664;23.372;2024-02-15T12:45:14;11.57;;;7.67;;
6135;SDS011;24008;42.664;23.372;2024-02-15T12:47:44;11.40;;;7.80;;
6135;SDS011;24008;42.664;23.372;2024-02-15T12:50:14;11.23;;;7.37;;
6135;SDS011;24008;42.664;23.372;2024-02-15T12:52:42;12.90;;;7.63;;
6135;SDS011;24008;42.664;23.372;2024-02-15T12:55:13;13.00;;;7.67;;
6135;SDS011;24008;42.664;23.372;2024-02-15T12:57:42;11.57;;;8.03;;
6135;SDS011;24008;42.664;23.372;2024-02-15T13:00:11;11.37;;;7.23;;
6135;SDS011;24008;42.664;23.372;2024-02-15T13:02:43;14.43;;;7.80;;
6135;SDS011;24008;42.664;23.372;2024-02-15T13:05:12;11.23;;;7.00;;
6135;SDS011;24008;42.664;23.372;2024-02-15T13:07:39;9.93;;;6.67;;
6135;SDS011;24008;42.664;23.372;2024-02-15T13:10:07;10.63;;;6.87;;
6135;SDS011;24008;42.664;23.372;2024-02-15T13:12:34;9.60;;;6.70;;
6135;SDS011;24008;42.664;23.372;2024-02-15T13:15:03;12.40;;;7.50;;
6135;SDS011;24008;42.664;23.372;2024-02-15T13:17:31;11.53;;;7.23;;
6135;SDS011;24008;42.664;23.372;2024-02-15T13:20:00;11.10;;;6.30;;
6135;SDS011;24008;42.664;23.372;2024-02-15T13:22:35;10.57;;;7.30;;
6135;SDS011;24008;42.664;23.372;2024-02-15T13:25:04;10.80;;;7.67;;
6135;SDS011;24008;42.664;23.372;2024-02-15T13:27:32;9.03;;;6.63;;
6135;SDS011;24008;42.664;23.372;2024-02-15T13:29:59;16.40;;;8.03;;
6135;SDS011;24008;42.664;23.372;2024-02-15T13:32:26;13.00;;;7.40;;
6135;SDS011;24008;42.664;23.372;2024-02-15T13:34:53;9.37;;;7.00;;
6135;SDS011;24008;42.664;23.372;2024-02-15T13:37:22;12.73;;;6.97;;
6135;SDS011;24008;42.664;23.372;2024-02-15T13:39:49;11.00;;;7.77;;
6135;SDS011;24008;42.664;23.372;2024-02-15T13:42:16;9.47;;;6.90;;
6135;SDS011;24008;42.664;23.372;2024-02-15T13:44:43;12.13;;;7.33;;
6135;SDS011;24008;42.664;23.372;2024-02-15T13:47:11;11.63;;;7.23;;
6135;SDS011;24008;42.664;23.372;2024-02-15T13:49:37;10.77;;;7.10;;
6135;SDS011;24008;42.664;23.372;2024-02-15T13:52:05;12.80;;;6.70;;
6135;SDS011;24008;42.664;23.372;2024-02-15T13:54:33;10.53;;;7.60;;
6135;SDS011;24008;42.664;23.372;2024-02-15T13:57:00;12.40;;;7.40;;
6135;SDS011;24008;42.664;23.372;2024-02-15T13:59:27;12.90;;;7.63;;
6135;SDS011;24008;42.664;23.372;2024-02-15T14:01:55;9.80;;;6.30;;
6135;SDS011;24008;42.664;23.372;2024-02-15T14:04:22;10.67;;;7.17;;
6135;SDS011;24008;42.664;23.372;2024-02-15T14:06:48;9.63;;;6.57;;
6135;SDS011;24008;42.664;23.372;2024-02-15T14:09:15;10.83;;;7.07;;
6135;SDS011;24008;42.664;23.372;2024-02-15T14:11:44;7.90;;;6.17;;
6135;SDS011;24008;42.664;23.372;2024-02-15T14:14:10;7.80;;;6.20;;
6135;SDS011;24008;42.664;23.372;2024-02-15T14:16:37;11.30;;;6.53;;
6135;SDS011;24008;42.664;23.372;2024-02-15T14:19:05;10.13;;;6.23;;
6135;SDS011;24008;42.664;23.372;2024-02-15T14:21:32;11.00;;;6.93;;
6135;SDS011;24008;42.664;23.372;2024-02-15T14:24:05;11.63;;;7.67;;
6135;SDS011;24008;42.664;23.372;2024-02-15T14:26:34;11.67;;;7.00;;
6135;SDS011;24008;42.664;23.372;2024-02-15T14:29:02;11.00;;;7.10;;
6135;SDS011;24008;42.664;23.372;2024-02-15T14:31:30;12.93;;;7.37;;
6135;SDS011;24008;42.664;23.372;2024-02-15T14:34:14;10.00;;;7.23;;
6135;SDS011;24008;42.664;23.372;2024-02-15T14:36:43;10.50;;;7.67;;
6135;SDS011;24008;42.664;23.372;2024-02-15T14:39:10;9.67;;;6.67;;
6135;SDS011;24008;42.664;23.372;2024-02-15T14:41:39;11.50;;;6.30;;
6135;SDS011;24008;42.664;23.372;2024-02-15T14:44:07;11.53;;;7.30;;
6135;SDS011;24008;42.664;23.372;2024-02-15T14:46:34;9.93;;;7.43;;
6135;SDS011;24008;42.664;23.372;2024-02-15T14:49:01;9.53;;;7.40;;
6135;SDS011;24008;42.664;23.372;2024-02-15T14:51:29;12.77;;;7.77;;
6135;SDS011;24008;42.664;23.372;2024-02-15T14:53:57;11.20;;;7.70;;